• Join FlightAware (Why Join?)
  • Login
  • US Flag 
03:47AM EDT


 

Airport Tracker/Info


-or-


 

Live Flight TrackerFlight Track Log ✈ EJA820 ✈ 22-Apr-2013 ✈ KTEB - KACY

Flight Track Log - Related Links

Times and Time Zones

All times are in EDT time to prevent confusion due to time zone crossing. See the EJA820 flight status page for this flight to view local times or setup timezone preferences in your user account.

Time Position Orientation Groundspeed Altitude Reporting Facility
EDT Latitude Longitude Course Direction KTS MPH feet Rate Location/Type
01:10PM 40.8833 -74.0333 311° West 160 184 2,000  Level New York TRACON
01:11PM 40.9167 -74.0833 311° West 212 244 3,800 1,980 Climbing New York TRACON
01:12PM 40.9167 -74.1667 270° West 235 270 5,800 1,140 Climbing New York TRACON
01:13PM 40.8500 -74.2167 210° Southwest 269 310 6,000 60 Climbing New York TRACON
01:14PM 40.7833 -74.2333 191° South 255 293 6,000  Level New York TRACON
01:15PM 40.7167 -74.2500 191° South 254 292 6,000  Level New York TRACON
01:16PM 40.6333 -74.2500 180° South 253 291 6,000  Level New York TRACON
01:17PM 40.5667 -74.2667 191° South 260 299 6,000  Level New York TRACON
01:18PM 40.5000 -74.2500 169° South 261 300 6,000 -300 Level New York TRACON
01:20PM 40.4348 -74.2174 159° South  Level FlightAware Approximate
01:27PM 40.0017 -74.2483 217° Southwest  Level FlightAware Approximate
01:28PM 39.9462 -74.2985 215° Southwest  Level FlightAware Approximate
01:29PM 39.8949 -74.3454 215° Southwest  Level FlightAware Approximate
01:30PM 39.8436 -74.3922 215° Southwest  Level FlightAware Approximate
01:31PM 39.7931 -74.4403 218° Southwest  Level FlightAware Approximate
01:31PM 39.6525 -74.5189 150° Southeast 247 284 2,400  Level Washington Center
01:32PM 39.7434 -74.4900 218° Southwest  Level FlightAware Approximate
01:33PM 39.6180 -74.5986 218° Southwest  Level FlightAware Approximate
01:33PM 39.6926 -74.5370 201° Southwest  Level FlightAware Approximate
01:34PM 39.6461 -74.5769 201° Southwest  Level FlightAware Approximate
01:35PM 39.6000 -74.6256 270° West  Level FlightAware Approximate
01:36PM 39.5480 -74.6376 153° Southeast  Level FlightAware Approximate
01:36PM 39.4261 -74.6217 150° Southeast 148 170 900  Level Washington Center
01:37PM 39.4930 -74.5989 150° Southeast  Level FlightAware Approximate
01:40PM 39.4576 -74.5772 150° Southeast  Level Estimated
01:41PM 39.4576 -74.5772 150° Southeast  Level Estimated